<?xml version="1.0" encoding="UTF-8" standalone="no" ?><gpx xmlns="http://www.topografix.com/GPX/1/1" xmlns:gpxx="http://www.garmin.com/xmlschemas/GpxExtensions/v3" xmlns:wptx1="http://www.garmin.com/xmlschemas/WaypointExtension/v1" xmlns:gpxtpx="http://www.garmin.com/xmlschemas/TrackPointExtension/v1" creator="GuideVTT.com" version="1.1" xmlns:xsi="http://www.w3.org/2001/XMLSchema-instance" xsi:schemaLocation="http://www.topografix.com/GPX/1/1 http://www.topografix.com/GPX/1/1/gpx.xsd http://www.garmin.com/xmlschemas/GpxExtensions/v3 http://www8.garmin.com/xmlschemas/GpxExtensionsv3.xsd http://www.garmin.com/xmlschemas/WaypointExtension/v1 http://www8.garmin.com/xmlschemas/WaypointExtensionv1.xsd http://www.garmin.com/xmlschemas/TrackPointExtension/v1 http://www.garmin.com/xmlschemas/TrackPointExtensionv1.xsd">
<metadata><link href="http://www.garmin.com"><text>Garmin International</text></link><time>2013-06-22T15:13:50Z</time></metadata>
<trk><name>ne_tn_755.gpx</name><extensions><gpxx:TrackExtension><gpxx:DisplayColor>Cyan</gpxx:DisplayColor></gpxx:TrackExtension></extensions><trkseg>
<trkpt lat="47.05779921" lon="6.74629640"><ele></ele><time>2014-4-13T17:19:4Z</time></trkpt>
<trkpt lat="47.05861777" lon="6.74778641"><ele></ele><time>2014-4-13T17:19:7Z</time></trkpt>
<trkpt lat="47.05884620" lon="6.74837580"><ele></ele><time>2014-4-13T17:19:10Z</time></trkpt>
<trkpt lat="47.05866796" lon="6.74865452"><ele></ele><time>2014-4-13T17:19:13Z</time></trkpt>
<trkpt lat="47.05817088" lon="6.74826603"><ele></ele><time>2014-4-13T17:19:16Z</time></trkpt>
<trkpt lat="47.05785844" lon="6.74866493"><ele></ele><time>2014-4-13T17:19:19Z</time></trkpt>
<trkpt lat="47.05821311" lon="6.74930535"><ele></ele><time>2014-4-13T17:19:22Z</time></trkpt>
<trkpt lat="47.05872076" lon="6.74995697"><ele></ele><time>2014-4-13T17:19:25Z</time></trkpt>
<trkpt lat="47.05957422" lon="6.75127549"><ele></ele><time>2014-4-13T17:19:28Z</time></trkpt>
<trkpt lat="47.05985857" lon="6.75219327"><ele></ele><time>2014-4-13T17:19:31Z</time></trkpt>
<trkpt lat="47.06094221" lon="6.75440403"><ele></ele><time>2014-4-13T17:19:34Z</time></trkpt>
<trkpt lat="47.06132007" lon="6.75592619"><ele></ele><time>2014-4-13T17:19:37Z</time></trkpt>
<trkpt lat="47.06177762" lon="6.75723673"><ele></ele><time>2014-4-13T17:19:40Z</time></trkpt>
<trkpt lat="47.06241973" lon="6.75933479"><ele></ele><time>2014-4-13T17:19:43Z</time></trkpt>
<trkpt lat="47.06196481" lon="6.75998557"><ele></ele><time>2014-4-13T17:19:46Z</time></trkpt>
<trkpt lat="47.06157456" lon="6.76092513"><ele></ele><time>2014-4-13T17:19:49Z</time></trkpt>
<trkpt lat="47.06085290" lon="6.76210580"><ele></ele><time>2014-4-13T17:19:52Z</time></trkpt>
<trkpt lat="47.06032539" lon="6.76265215"><ele></ele><time>2014-4-13T17:19:55Z</time></trkpt>
<trkpt lat="47.05973523" lon="6.76325193"><ele></ele><time>2014-4-13T17:19:58Z</time></trkpt>
<trkpt lat="47.05924361" lon="6.76378464"><ele></ele><time>2014-4-13T17:20:1Z</time></trkpt>
<trkpt lat="47.05866275" lon="6.76443693"><ele></ele><time>2014-4-13T17:20:4Z</time></trkpt>
<trkpt lat="47.05790206" lon="6.76510463"><ele></ele><time>2014-4-13T17:20:7Z</time></trkpt>
<trkpt lat="47.05719580" lon="6.76585060"><ele></ele><time>2014-4-13T17:20:10Z</time></trkpt>
<trkpt lat="47.05642457" lon="6.76625515"><ele></ele><time>2014-4-13T17:20:13Z</time></trkpt>
<trkpt lat="47.05539357" lon="6.76684720"><ele></ele><time>2014-4-13T17:20:16Z</time></trkpt>
<trkpt lat="47.05531031" lon="6.76645338"><ele></ele><time>2014-4-13T17:20:19Z</time></trkpt>
<trkpt lat="47.05467445" lon="6.76693518"><ele></ele><time>2014-4-13T17:20:22Z</time></trkpt>
<trkpt lat="47.05427508" lon="6.76786151"><ele></ele><time>2014-4-13T17:20:25Z</time></trkpt>
<trkpt lat="47.05393005" lon="6.76885296"><ele></ele><time>2014-4-13T17:20:28Z</time></trkpt>
<trkpt lat="47.05343526" lon="6.76884597"><ele></ele><time>2014-4-13T17:20:31Z</time></trkpt>
<trkpt lat="47.05275651" lon="6.76814373"><ele></ele><time>2014-4-13T17:20:34Z</time></trkpt>
<trkpt lat="47.05198766" lon="6.76741631"><ele></ele><time>2014-4-13T17:20:37Z</time></trkpt>
<trkpt lat="47.05076484" lon="6.76751057"><ele></ele><time>2014-4-13T17:20:40Z</time></trkpt>
<trkpt lat="47.05081650" lon="6.76711510"><ele></ele><time>2014-4-13T17:20:43Z</time></trkpt>
<trkpt lat="47.05036784" lon="6.76730497"><ele></ele><time>2014-4-13T17:20:46Z</time></trkpt>
<trkpt lat="47.05013290" lon="6.76712366"><ele></ele><time>2014-4-13T17:20:49Z</time></trkpt>
<trkpt lat="47.05000620" lon="6.76699363"><ele></ele><time>2014-4-13T17:20:52Z</time></trkpt>
<trkpt lat="47.04959206" lon="6.76693302"><ele></ele><time>2014-4-13T17:20:55Z</time></trkpt>
<trkpt lat="47.04981269" lon="6.76620641"><ele></ele><time>2014-4-13T17:20:58Z</time></trkpt>
<trkpt lat="47.04950726" lon="6.76627605"><ele></ele><time>2014-4-13T17:21:1Z</time></trkpt>
<trkpt lat="47.05017762" lon="6.76554380"><ele></ele><time>2014-4-13T17:21:4Z</time></trkpt>
<trkpt lat="47.05004000" lon="6.76508490"><ele></ele><time>2014-4-13T17:21:7Z</time></trkpt>
<trkpt lat="47.04940439" lon="6.76560614"><ele></ele><time>2014-4-13T17:21:10Z</time></trkpt>
<trkpt lat="47.04909381" lon="6.76633387"><ele></ele><time>2014-4-13T17:21:13Z</time></trkpt>
<trkpt lat="47.04842429" lon="6.76721085"><ele></ele><time>2014-4-13T17:21:16Z</time></trkpt>
<trkpt lat="47.04826023" lon="6.76838417"><ele></ele><time>2014-4-13T17:21:19Z</time></trkpt>
<trkpt lat="47.04798332" lon="6.76871664"><ele></ele><time>2014-4-13T17:21:22Z</time></trkpt>
<trkpt lat="47.04807496" lon="6.76746526"><ele></ele><time>2014-4-13T17:21:25Z</time></trkpt>
<trkpt lat="47.04774391" lon="6.76623234"><ele></ele><time>2014-4-13T17:21:28Z</time></trkpt>
<trkpt lat="47.04724342" lon="6.76525161"><ele></ele><time>2014-4-13T17:21:31Z</time></trkpt>
<trkpt lat="47.04666930" lon="6.76552202"><ele></ele><time>2014-4-13T17:21:34Z</time></trkpt>
<trkpt lat="47.04603736" lon="6.76513515"><ele></ele><time>2014-4-13T17:21:37Z</time></trkpt>
<trkpt lat="47.04522660" lon="6.76493478"><ele></ele><time>2014-4-13T17:21:40Z</time></trkpt>
<trkpt lat="47.04450633" lon="6.76482539"><ele></ele><time>2014-4-13T17:21:43Z</time></trkpt>
<trkpt lat="47.04337454" lon="6.76510278"><ele></ele><time>2014-4-13T17:21:46Z</time></trkpt>
<trkpt lat="47.04256937" lon="6.76432335"><ele></ele><time>2014-4-13T17:21:49Z</time></trkpt>
<trkpt lat="47.04198008" lon="6.76354123"><ele></ele><time>2014-4-13T17:21:52Z</time></trkpt>
<trkpt lat="47.04129889" lon="6.76243132"><ele></ele><time>2014-4-13T17:21:55Z</time></trkpt>
<trkpt lat="47.04048743" lon="6.76211258"><ele></ele><time>2014-4-13T17:21:58Z</time></trkpt>
<trkpt lat="47.03962975" lon="6.76158391"><ele></ele><time>2014-4-13T17:22:1Z</time></trkpt>
<trkpt lat="47.03921963" lon="6.76068117"><ele></ele><time>2014-4-13T17:22:4Z</time></trkpt>
<trkpt lat="47.03880865" lon="6.75963372"><ele></ele><time>2014-4-13T17:22:7Z</time></trkpt>
<trkpt lat="47.03843434" lon="6.75870424"><ele></ele><time>2014-4-13T17:22:10Z</time></trkpt>
<trkpt lat="47.03780512" lon="6.75726486"><ele></ele><time>2014-4-13T17:22:13Z</time></trkpt>
<trkpt lat="47.03721460" lon="6.75628553"><ele></ele><time>2014-4-13T17:22:16Z</time></trkpt>
<trkpt lat="47.03662494" lon="6.75545095"><ele></ele><time>2014-4-13T17:22:19Z</time></trkpt>
<trkpt lat="47.03625263" lon="6.75486361"><ele></ele><time>2014-4-13T17:22:22Z</time></trkpt>
<trkpt lat="47.03535784" lon="6.75415136"><ele></ele><time>2014-4-13T17:22:25Z</time></trkpt>
<trkpt lat="47.03435542" lon="6.75349315"><ele></ele><time>2014-4-13T17:22:28Z</time></trkpt>
<trkpt lat="47.03345485" lon="6.75332045"><ele></ele><time>2014-4-13T17:22:31Z</time></trkpt>
<trkpt lat="47.03291234" lon="6.75285374"><ele></ele><time>2014-4-13T17:22:34Z</time></trkpt>
<trkpt lat="47.03223506" lon="6.75241508"><ele></ele><time>2014-4-13T17:22:37Z</time></trkpt>
<trkpt lat="47.03173319" lon="6.75122427"><ele></ele><time>2014-4-13T17:22:40Z</time></trkpt>
<trkpt lat="47.03137885" lon="6.75063678"><ele></ele><time>2014-4-13T17:22:43Z</time></trkpt>
<trkpt lat="47.03069249" lon="6.75018512"><ele></ele><time>2014-4-13T17:22:46Z</time></trkpt>
<trkpt lat="47.03024583" lon="6.74920415"><ele></ele><time>2014-4-13T17:22:49Z</time></trkpt>
<trkpt lat="47.02992714" lon="6.74856361"><ele></ele><time>2014-4-13T17:22:52Z</time></trkpt>
<trkpt lat="47.02907541" lon="6.74903501"><ele></ele><time>2014-4-13T17:22:55Z</time></trkpt>
<trkpt lat="47.02821656" lon="6.74832249"><ele></ele><time>2014-4-13T17:22:58Z</time></trkpt>
<trkpt lat="47.02785551" lon="6.74811665"><ele></ele><time>2014-4-13T17:23:1Z</time></trkpt>
<trkpt lat="47.02748482" lon="6.74780569"><ele></ele><time>2014-4-13T17:23:4Z</time></trkpt>
<trkpt lat="47.02717702" lon="6.74748078"><ele></ele><time>2014-4-13T17:23:7Z</time></trkpt>
<trkpt lat="47.02690916" lon="6.74781310"><ele></ele><time>2014-4-13T17:23:10Z</time></trkpt>
<trkpt lat="47.02624009" lon="6.74874257"><ele></ele><time>2014-4-13T17:23:13Z</time></trkpt>
<trkpt lat="47.02571651" lon="6.75143289"><ele></ele><time>2014-4-13T17:23:16Z</time></trkpt>
<trkpt lat="47.02476820" lon="6.75080045"><ele></ele><time>2014-4-13T17:23:19Z</time></trkpt>
<trkpt lat="47.02436068" lon="6.75034527"><ele></ele><time>2014-4-13T17:23:22Z</time></trkpt>
<trkpt lat="47.02430939" lon="6.74929357"><ele></ele><time>2014-4-13T17:23:25Z</time></trkpt>
<trkpt lat="47.02402541" lon="6.74844217"><ele></ele><time>2014-4-13T17:23:28Z</time></trkpt>
<trkpt lat="47.02281925" lon="6.74831299"><ele></ele><time>2014-4-13T17:23:31Z</time></trkpt>
<trkpt lat="47.02218534" lon="6.74761083"><ele></ele><time>2014-4-13T17:23:34Z</time></trkpt>
<trkpt lat="47.02159831" lon="6.74722377"><ele></ele><time>2014-4-13T17:23:37Z</time></trkpt>
<trkpt lat="47.02108540" lon="6.74570455"><ele></ele><time>2014-4-13T17:23:40Z</time></trkpt>
<trkpt lat="47.02112362" lon="6.74458599"><ele></ele><time>2014-4-13T17:23:43Z</time></trkpt>
<trkpt lat="47.02090584" lon="6.74427311"><ele></ele><time>2014-4-13T17:23:46Z</time></trkpt>
<trkpt lat="47.02049868" lon="6.74388377"><ele></ele><time>2014-4-13T17:23:49Z</time></trkpt>
<trkpt lat="47.01999473" lon="6.74236450"><ele></ele><time>2014-4-13T17:23:52Z</time></trkpt>
<trkpt lat="47.01962435" lon="6.74210623"><ele></ele><time>2014-4-13T17:23:55Z</time></trkpt>
<trkpt lat="47.01966341" lon="6.74113238"><ele></ele><time>2014-4-13T17:23:58Z</time></trkpt>
<trkpt lat="47.01921499" lon="6.73987549"><ele></ele><time>2014-4-13T17:24:1Z</time></trkpt>
<trkpt lat="47.01816238" lon="6.73837660"><ele></ele><time>2014-4-13T17:24:4Z</time></trkpt>
<trkpt lat="47.01717561" lon="6.73735040"><ele></ele><time>2014-4-13T17:24:7Z</time></trkpt>
<trkpt lat="47.01627051" lon="6.73644155"><ele></ele><time>2014-4-13T17:24:10Z</time></trkpt>
<trkpt lat="47.01564047" lon="6.73638403"><ele></ele><time>2014-4-13T17:24:13Z</time></trkpt>
<trkpt lat="47.01612329" lon="6.73590422"><ele></ele><time>2014-4-13T17:24:16Z</time></trkpt>
<trkpt lat="47.01545647" lon="6.73571567"><ele></ele><time>2014-4-13T17:24:19Z</time></trkpt>
<trkpt lat="47.01505098" lon="6.73560260"><ele></ele><time>2014-4-13T17:24:22Z</time></trkpt>
<trkpt lat="47.01401498" lon="6.73535313"><ele></ele><time>2014-4-13T17:24:25Z</time></trkpt>
<trkpt lat="47.01374102" lon="6.73468597"><ele></ele><time>2014-4-13T17:24:28Z</time></trkpt>
<trkpt lat="47.01431475" lon="6.73436280"><ele></ele><time>2014-4-13T17:24:31Z</time></trkpt>
<trkpt lat="47.01454619" lon="6.73396520"><ele></ele><time>2014-4-13T17:24:34Z</time></trkpt>
<trkpt lat="47.01413739" lon="6.73331296"><ele></ele><time>2014-4-13T17:24:37Z</time></trkpt>
<trkpt lat="47.01336919" lon="6.73273122"><ele></ele><time>2014-4-13T17:24:40Z</time></trkpt>
<trkpt lat="47.01259979" lon="6.73195224"><ele></ele><time>2014-4-13T17:24:43Z</time></trkpt>
<trkpt lat="47.01183037" lon="6.73117328"><ele></ele><time>2014-4-13T17:24:46Z</time></trkpt>
<trkpt lat="47.01106095" lon="6.73039435"><ele></ele><time>2014-4-13T17:24:49Z</time></trkpt>
<trkpt lat="47.01042799" lon="6.72986350"><ele></ele><time>2014-4-13T17:24:52Z</time></trkpt>
<trkpt lat="47.00978530" lon="6.72921444"><ele></ele><time>2014-4-13T17:24:55Z</time></trkpt>
<trkpt lat="47.00933312" lon="6.72882589"><ele></ele><time>2014-4-13T17:24:58Z</time></trkpt>
<trkpt lat="47.00839572" lon="6.72852267"><ele></ele><time>2014-4-13T17:25:1Z</time></trkpt>
<trkpt lat="47.00766462" lon="6.72812467"><ele></ele><time>2014-4-13T17:25:4Z</time></trkpt>
<trkpt lat="47.00707589" lon="6.72747495"><ele></ele><time>2014-4-13T17:25:7Z</time></trkpt>
<trkpt lat="47.00658814" lon="6.72715266"><ele></ele><time>2014-4-13T17:25:10Z</time></trkpt>
<trkpt lat="47.00595859" lon="6.72717415"><ele></ele><time>2014-4-13T17:25:13Z</time></trkpt>
<trkpt lat="47.00541972" lon="6.72731279"><ele></ele><time>2014-4-13T17:25:16Z</time></trkpt>
<trkpt lat="47.00473530" lon="6.72719036"><ele></ele><time>2014-4-13T17:25:19Z</time></trkpt>
<trkpt lat="47.00415719" lon="6.72680353"><ele></ele><time>2014-4-13T17:25:22Z</time></trkpt>
<trkpt lat="47.00347310" lon="6.72673371"><ele></ele><time>2014-4-13T17:25:25Z</time></trkpt>
<trkpt lat="47.00289540" lon="6.72641263"><ele></ele><time>2014-4-13T17:25:28Z</time></trkpt>
<trkpt lat="47.00252825" lon="6.72523408"><ele></ele><time>2014-4-13T17:25:31Z</time></trkpt>
<trkpt lat="47.00247551" lon="6.72398560"><ele></ele><time>2014-4-13T17:25:34Z</time></trkpt>
<trkpt lat="47.00229028" lon="6.72313337"><ele></ele><time>2014-4-13T17:25:37Z</time></trkpt>
<trkpt lat="47.00219509" lon="6.72229310"><ele></ele><time>2014-4-13T17:25:40Z</time></trkpt>
<trkpt lat="47.00168472" lon="6.72123484"><ele></ele><time>2014-4-13T17:25:43Z</time></trkpt>
<trkpt lat="47.00141985" lon="6.72059408"><ele></ele><time>2014-4-13T17:25:46Z</time></trkpt>
<trkpt lat="47.00122305" lon="6.71933442"><ele></ele><time>2014-4-13T17:25:49Z</time></trkpt>
<trkpt lat="47.00090691" lon="6.71769505"><ele></ele><time>2014-4-13T17:25:52Z</time></trkpt>
<trkpt lat="47.00039535" lon="6.71645279"><ele></ele><time>2014-4-13T17:25:55Z</time></trkpt>
<trkpt lat="47.00012755" lon="6.71535191"><ele></ele><time>2014-4-13T17:25:58Z</time></trkpt>
<trkpt lat="47.00119779" lon="6.71389111"><ele></ele><time>2014-4-13T17:26:1Z</time></trkpt>
<trkpt lat="47.00277095" lon="6.71372523"><ele></ele><time>2014-4-13T17:26:4Z</time></trkpt>
<trkpt lat="47.00466607" lon="6.71468588"><ele></ele><time>2014-4-13T17:26:7Z</time></trkpt>
<trkpt lat="47.00560526" lon="6.71526496"><ele></ele><time>2014-4-13T17:26:10Z</time></trkpt>
<trkpt lat="47.00651538" lon="6.71551570"><ele></ele><time>2014-4-13T17:26:13Z</time></trkpt>
<trkpt lat="47.00834492" lon="6.71463626"><ele></ele><time>2014-4-13T17:26:16Z</time></trkpt>
<trkpt lat="47.00906416" lon="6.71457396"><ele></ele><time>2014-4-13T17:26:19Z</time></trkpt>
<trkpt lat="47.00988642" lon="6.71515467"><ele></ele><time>2014-4-13T17:26:22Z</time></trkpt>
<trkpt lat="47.01092081" lon="6.71514073"><ele></ele><time>2014-4-13T17:26:25Z</time></trkpt>
<trkpt lat="47.01262732" lon="6.71472317"><ele></ele><time>2014-4-13T17:26:28Z</time></trkpt>
<trkpt lat="47.01297595" lon="6.71437653"><ele></ele><time>2014-4-13T17:26:31Z</time></trkpt>
<trkpt lat="47.01415559" lon="6.71457104"><ele></ele><time>2014-4-13T17:26:34Z</time></trkpt>
<trkpt lat="47.01501000" lon="6.71454636"><ele></ele><time>2014-4-13T17:26:37Z</time></trkpt>
<trkpt lat="47.01559715" lon="6.71493302"><ele></ele><time>2014-4-13T17:26:40Z</time></trkpt>
<trkpt lat="47.01662379" lon="6.71511646"><ele></ele><time>2014-4-13T17:26:43Z</time></trkpt>
<trkpt lat="47.01743700" lon="6.71426372"><ele></ele><time>2014-4-13T17:26:46Z</time></trkpt>
<trkpt lat="47.01806419" lon="6.71529434"><ele></ele><time>2014-4-13T17:26:49Z</time></trkpt>
<trkpt lat="47.02022611" lon="6.71434446"><ele></ele><time>2014-4-13T17:26:52Z</time></trkpt>
<trkpt lat="47.02144794" lon="6.71552497"><ele></ele><time>2014-4-13T17:26:55Z</time></trkpt>
<trkpt lat="47.02284545" lon="6.71746611"><ele></ele><time>2014-4-13T17:26:58Z</time></trkpt>
<trkpt lat="47.02435439" lon="6.72140536"><ele></ele><time>2014-4-13T17:27:1Z</time></trkpt>
<trkpt lat="47.02522724" lon="6.72289334"><ele></ele><time>2014-4-13T17:27:4Z</time></trkpt>
<trkpt lat="47.02572523" lon="6.72341290"><ele></ele><time>2014-4-13T17:27:7Z</time></trkpt>
<trkpt lat="47.02747879" lon="6.72332375"><ele></ele><time>2014-4-13T17:27:10Z</time></trkpt>
<trkpt lat="47.02873772" lon="6.72325434"><ele></ele><time>2014-4-13T17:27:13Z</time></trkpt>
<trkpt lat="47.02936940" lon="6.72357482"><ele></ele><time>2014-4-13T17:27:16Z</time></trkpt>
<trkpt lat="47.03017761" lon="6.72335355"><ele></ele><time>2014-4-13T17:27:19Z</time></trkpt>
<trkpt lat="47.03130653" lon="6.72407525"><ele></ele><time>2014-4-13T17:27:22Z</time></trkpt>
<trkpt lat="47.03202276" lon="6.72497351"><ele></ele><time>2014-4-13T17:27:25Z</time></trkpt>
<trkpt lat="47.03368555" lon="6.72475404"><ele></ele><time>2014-4-13T17:27:28Z</time></trkpt>
<trkpt lat="47.03558098" lon="6.72433411"><ele></ele><time>2014-4-13T17:27:31Z</time></trkpt>
<trkpt lat="47.03571721" lon="6.72454281"><ele></ele><time>2014-4-13T17:27:34Z</time></trkpt>
<trkpt lat="47.03620333" lon="6.72460213"><ele></ele><time>2014-4-13T17:27:37Z</time></trkpt>
<trkpt lat="47.03653041" lon="6.72512408"><ele></ele><time>2014-4-13T17:27:40Z</time></trkpt>
<trkpt lat="47.03679240" lon="6.72530480"><ele></ele><time>2014-4-13T17:27:43Z</time></trkpt>
<trkpt lat="47.03742325" lon="6.72549378"><ele></ele><time>2014-4-13T17:27:46Z</time></trkpt>
<trkpt lat="47.03796498" lon="6.72581552"><ele></ele><time>2014-4-13T17:27:49Z</time></trkpt>
<trkpt lat="47.03846958" lon="6.72595356"><ele></ele><time>2014-4-13T17:27:52Z</time></trkpt>
<trkpt lat="47.03910043" lon="6.72614255"><ele></ele><time>2014-4-13T17:27:55Z</time></trkpt>
<trkpt lat="47.03932726" lon="6.72645534"><ele></ele><time>2014-4-13T17:27:58Z</time></trkpt>
<trkpt lat="47.03942088" lon="6.72704622"><ele></ele><time>2014-4-13T17:28:1Z</time></trkpt>
<trkpt lat="47.03947074" lon="6.72783505"><ele></ele><time>2014-4-13T17:28:4Z</time></trkpt>
<trkpt lat="47.03924962" lon="6.72844326"><ele></ele><time>2014-4-13T17:28:7Z</time></trkpt>
<trkpt lat="47.03929695" lon="6.72882422"><ele></ele><time>2014-4-13T17:28:10Z</time></trkpt>
<trkpt lat="47.03956809" lon="6.72903116"><ele></ele><time>2014-4-13T17:28:13Z</time></trkpt>
<trkpt lat="47.03971065" lon="6.73026616"><ele></ele><time>2014-4-13T17:28:16Z</time></trkpt>
<trkpt lat="47.03994087" lon="6.73113157"><ele></ele><time>2014-4-13T17:28:19Z</time></trkpt>
<trkpt lat="47.04003528" lon="6.73185404"><ele></ele><time>2014-4-13T17:28:22Z</time></trkpt>
<trkpt lat="47.04003397" lon="6.73310410"><ele></ele><time>2014-4-13T17:28:25Z</time></trkpt>
<trkpt lat="47.04005096" lon="6.73440656"><ele></ele><time>2014-4-13T17:28:28Z</time></trkpt>
<trkpt lat="47.03987712" lon="6.73539572"><ele></ele><time>2014-4-13T17:28:31Z</time></trkpt>
<trkpt lat="47.03965998" lon="6.73666176"><ele></ele><time>2014-4-13T17:28:34Z</time></trkpt>
<trkpt lat="47.03934381" lon="6.73791593"><ele></ele><time>2014-4-13T17:28:37Z</time></trkpt>
<trkpt lat="47.03922029" lon="6.73831229"><ele></ele><time>2014-4-13T17:28:40Z</time></trkpt>
<trkpt lat="47.03890788" lon="6.73871111"><ele></ele><time>2014-4-13T17:28:43Z</time></trkpt>
<trkpt lat="47.03890949" lon="6.73897425"><ele></ele><time>2014-4-13T17:28:46Z</time></trkpt>
<trkpt lat="47.03958890" lon="6.73975488"><ele></ele><time>2014-4-13T17:28:49Z</time></trkpt>
<trkpt lat="47.04003324" lon="6.74034122"><ele></ele><time>2014-4-13T17:28:52Z</time></trkpt>
<trkpt lat="47.04048370" lon="6.74045379"><ele></ele><time>2014-4-13T17:28:55Z</time></trkpt>
<trkpt lat="47.04084556" lon="6.74079120"><ele></ele><time>2014-4-13T17:28:58Z</time></trkpt>
<trkpt lat="47.04116437" lon="6.74144499"><ele></ele><time>2014-4-13T17:29:1Z</time></trkpt>
<trkpt lat="47.04153835" lon="6.74229545"><ele></ele><time>2014-4-13T17:29:4Z</time></trkpt>
<trkpt lat="47.04207994" lon="6.74260423"><ele></ele><time>2014-4-13T17:29:7Z</time></trkpt>
<trkpt lat="47.04234286" lon="6.74294295"><ele></ele><time>2014-4-13T17:29:10Z</time></trkpt>
<trkpt lat="47.04248989" lon="6.74345424"><ele></ele><time>2014-4-13T17:29:13Z</time></trkpt>
<trkpt lat="47.04275280" lon="6.74379297"><ele></ele><time>2014-4-13T17:29:16Z</time></trkpt>
<trkpt lat="47.04334518" lon="6.74357475"><ele></ele><time>2014-4-13T17:29:19Z</time></trkpt>
<trkpt lat="47.04369278" lon="6.74304388"><ele></ele><time>2014-4-13T17:29:22Z</time></trkpt>
<trkpt lat="47.04428532" lon="6.74285196"><ele></ele><time>2014-4-13T17:29:25Z</time></trkpt>
<trkpt lat="47.04504947" lon="6.74277626"><ele></ele><time>2014-4-13T17:29:28Z</time></trkpt>
<trkpt lat="47.04553478" lon="6.74270416"><ele></ele><time>2014-4-13T17:29:31Z</time></trkpt>
<trkpt lat="47.04608864" lon="6.74355237"><ele></ele><time>2014-4-13T17:29:34Z</time></trkpt>
<trkpt lat="47.04662482" lon="6.74445346"><ele></ele><time>2014-4-13T17:29:37Z</time></trkpt>
<trkpt lat="47.04761933" lon="6.74379574"><ele></ele><time>2014-4-13T17:29:40Z</time></trkpt>
<trkpt lat="47.04860628" lon="6.74337498"><ele></ele><time>2014-4-13T17:29:43Z</time></trkpt>
<trkpt lat="47.04932505" lon="6.74323406"><ele></ele><time>2014-4-13T17:29:46Z</time></trkpt>
<trkpt lat="47.05062848" lon="6.74308555"><ele></ele><time>2014-4-13T17:29:49Z</time></trkpt>
<trkpt lat="47.05126010" lon="6.74340639"><ele></ele><time>2014-4-13T17:29:52Z</time></trkpt>
<trkpt lat="47.05260939" lon="6.74340206"><ele></ele><time>2014-4-13T17:29:55Z</time></trkpt>
<trkpt lat="47.05301813" lon="6.74405484"><ele></ele><time>2014-4-13T17:29:58Z</time></trkpt>
<trkpt lat="47.05382462" lon="6.74503153"><ele></ele><time>2014-4-13T17:30:1Z</time></trkpt>
<trkpt lat="47.05441325" lon="6.74568201"><ele></ele><time>2014-4-13T17:30:4Z</time></trkpt>
<trkpt lat="47.05459354" lon="6.74574549"><ele></ele><time>2014-4-13T17:30:7Z</time></trkpt>
<trkpt lat="47.05558519" lon="6.74461390"><ele></ele><time>2014-4-13T17:30:10Z</time></trkpt>
<trkpt lat="47.05594393" lon="6.74592548"><ele></ele><time>2014-4-13T17:30:13Z</time></trkpt>
<trkpt lat="47.05635504" lon="6.74697316"><ele></ele><time>2014-4-13T17:30:16Z</time></trkpt>
<trkpt lat="47.05667646" lon="6.74657415"><ele></ele><time>2014-4-13T17:30:19Z</time></trkpt>
<trkpt lat="47.05798437" lon="6.74866331"><ele></ele><time>2014-4-13T17:30:22Z</time></trkpt>
<trkpt lat="47.05817088" lon="6.74826603"><ele></ele><time>2014-4-13T17:30:25Z</time></trkpt>
<trkpt lat="47.05866796" lon="6.74865452"><ele></ele><time>2014-4-13T17:30:28Z</time></trkpt>
<trkpt lat="47.05884620" lon="6.74837580"><ele></ele><time>2014-4-13T17:30:31Z</time></trkpt>
<trkpt lat="47.05861777" lon="6.74778641"><ele></ele><time>2014-4-13T17:30:34Z</time></trkpt>
<trkpt lat="47.05779921" lon="6.74629640"><ele></ele><time>2014-4-13T17:30:37Z</time></trkpt>
</trkseg></trk></gpx>